Aviation weather information 2020-05-31 19:46 UTC

TAF(FCEO32)
FCEO32 EETN 311300
TAF EEKA 311700Z 3114/3120 CNL=
FCEO32 EETN 311400 AAA
TAF AMD EEKE 311800Z 3115/3121 CNL=

TAF(FTEO31)
FTEO31 EETN 311700
TAF EETN 311700Z 3118/0118 VRB02KT CAVOK BECMG 0102/0104 BKN040
     BECMG 0106/0108 04012KT=

Weather observation (METAR/SPECI)
METAR EETN 311920Z AUTO 34005KT CAVOK 13/06 Q1025=
METAR EEEI 311920Z AUTO VRB02KT CAVOK 12/06 Q1025=
METAR EETU 311920Z AUTO 02003KT 9999 NCD 12/03 Q1023=
METAR EEPU 311850Z NIL=
METAR EEKE 311850Z AUTO 35006KT 9999NDV NCD 16/05 Q1025=
METAR EEKA 311850Z NIL=